sensor_id;sensor_type;location;lat;lon;timestamp;pressure;altitude;pressure_sealevel;temperature;humidity
13732;BME280;6937;56.096;12.664;2022-12-18T00:00:46;101948.41;;;-0.17;100.00
13732;BME280;6937;56.096;12.664;2022-12-18T00:03:13;101920.47;;;-0.29;100.00
13732;BME280;6937;56.096;12.664;2022-12-18T00:05:49;101939.63;;;-0.18;100.00
13732;BME280;6937;56.096;12.664;2022-12-18T00:08:15;101935.31;;;-0.23;100.00
13732;BME280;6937;56.096;12.664;2022-12-18T00:10:42;101944.06;;;-0.20;100.00
13732;BME280;6937;56.096;12.664;2022-12-18T00:13:07;101935.28;;;-0.20;100.00
13732;BME280;6937;56.096;12.664;2022-12-18T00:15:37;101942.31;;;-0.22;100.00
13732;BME280;6937;56.096;12.664;2022-12-18T00:18:03;101943.25;;;-0.28;100.00
13732;BME280;6937;56.096;12.664;2022-12-18T00:20:29;101958.09;;;-0.24;100.00
13732;BME280;6937;56.096;12.664;2022-12-18T00:22:54;101940.66;;;-0.31;100.00
13732;BME280;6937;56.096;12.664;2022-12-18T00:25:20;101942.44;;;-0.37;100.00
13732;BME280;6937;56.096;12.664;2022-12-18T00:27:46;101958.16;;;-0.33;100.00
13732;BME280;6937;56.096;12.664;2022-12-18T00:30:11;101956.47;;;-0.38;100.00
13732;BME280;6937;56.096;12.664;2022-12-18T00:32:37;101983.63;;;-0.41;100.00
13732;BME280;6937;56.096;12.664;2022-12-18T00:35:03;101994.13;;;-0.41;100.00
13732;BME280;6937;56.096;12.664;2022-12-18T00:37:28;101988.94;;;-0.45;100.00
13732;BME280;6937;56.096;12.664;2022-12-18T00:39:54;101995.06;;;-0.46;100.00
13732;BME280;6937;56.096;12.664;2022-12-18T00:42:19;102002.06;;;-0.47;100.00
13732;BME280;6937;56.096;12.664;2022-12-18T00:45:03;102002.03;;;-0.44;100.00
13732;BME280;6937;56.096;12.664;2022-12-18T00:47:29;101981.06;;;-0.52;100.00
13732;BME280;6937;56.096;12.664;2022-12-18T00:49:54;102013.44;;;-0.48;100.00
13732;BME280;6937;56.096;12.664;2022-12-18T00:52:20;102005.59;;;-0.54;100.00
13732;BME280;6937;56.096;12.664;2022-12-18T00:54:45;102026.53;;;-0.45;100.00
13732;BME280;6937;56.096;12.664;2022-12-18T00:57:10;102007.38;;;-0.58;100.00
13732;BME280;6937;56.096;12.664;2022-12-18T00:59:36;102031.00;;;-0.58;100.00
13732;BME280;6937;56.096;12.664;2022-12-18T01:02:01;102036.25;;;-0.58;100.00
13732;BME280;6937;56.096;12.664;2022-12-18T01:04:27;102047.63;;;-0.59;100.00
13732;BME280;6937;56.096;12.664;2022-12-18T01:06:53;102034.56;;;-0.71;100.00
13732;BME280;6937;56.096;12.664;2022-12-18T01:09:19;102047.63;;;-0.59;100.00
13732;BME280;6937;56.096;12.664;2022-12-18T01:11:44;102044.13;;;-0.59;100.00
13732;BME280;6937;56.096;12.664;2022-12-18T01:14:09;102066.84;;;-0.52;100.00
13732;BME280;6937;56.096;12.664;2022-12-18T01:16:35;102076.50;;;-0.53;100.00
13732;BME280;6937;56.096;12.664;2022-12-18T01:19:00;102086.13;;;-0.53;100.00
13732;BME280;6937;56.096;12.664;2022-12-18T01:21:26;102089.56;;;-0.43;100.00
13732;BME280;6937;56.096;12.664;2022-12-18T01:23:53;102074.69;;;-0.46;100.00
13732;BME280;6937;56.096;12.664;2022-12-18T01:26:19;102086.94;;;-0.45;100.00
13732;BME280;6937;56.096;12.664;2022-12-18T01:28:44;102089.50;;;-0.37;100.00
13732;BME280;6937;56.096;12.664;2022-12-18T01:31:21;102083.34;;;-0.33;100.00
13732;BME280;6937;56.096;12.664;2022-12-18T01:33:49;102060.69;;;-0.43;100.00
13732;BME280;6937;56.096;12.664;2022-12-18T01:36:25;102092.94;;;-0.25;100.00
13732;BME280;6937;56.096;12.664;2022-12-18T01:38:51;102093.75;;;-0.18;100.00
13732;BME280;6937;56.096;12.664;2022-12-18T01:41:20;102093.78;;;-0.21;100.00
13732;BME280;6937;56.096;12.664;2022-12-18T01:43:49;102136.59;;;-0.06;100.00
13732;BME280;6937;56.096;12.664;2022-12-18T01:46:16;102142.66;;;0.04;100.00
13732;BME280;6937;56.096;12.664;2022-12-18T01:48:42;102134.78;;;0.01;100.00
13732;BME280;6937;56.096;12.664;2022-12-18T01:51:10;102174.13;;;0.18;100.00
13732;BME280;6937;56.096;12.664;2022-12-18T01:53:37;102154.84;;;0.17;100.00
13732;BME280;6937;56.096;12.664;2022-12-18T01:56:04;102163.59;;;0.16;100.00
13732;BME280;6937;56.096;12.664;2022-12-18T01:59:06;102162.78;;;0.11;100.00
13732;BME280;6937;56.096;12.664;2022-12-18T02:01:34;102166.28;;;0.10;100.00
13732;BME280;6937;56.096;12.664;2022-12-18T02:04:22;102173.31;;;0.07;100.00
13732;BME280;6937;56.096;12.664;2022-12-18T02:06:52;102174.22;;;0.03;100.00
13732;BME280;6937;56.096;12.664;2022-12-18T02:09:36;102187.31;;;0.10;100.00
13732;BME280;6937;56.096;12.664;2022-12-18T02:12:12;102196.94;;;0.11;100.00
13732;BME280;6937;56.096;12.664;2022-12-18T02:17:20;102185.47;;;0.21;100.00
13732;BME280;6937;56.096;12.664;2022-12-18T02:23:04;102205.59;;;0.25;100.00
13732;BME280;6937;56.096;12.664;2022-12-18T02:31:21;102197.78;;;0.13;100.00
13732;BME280;6937;56.096;12.664;2022-12-18T02:33:50;102211.78;;;0.17;100.00
13732;BME280;6937;56.096;12.664;2022-12-18T02:36:18;102206.53;;;0.15;100.00
13732;BME280;6937;56.096;12.664;2022-12-18T02:38:45;102216.22;;;0.15;100.00
13732;BME280;6937;56.096;12.664;2022-12-18T02:41:13;102206.56;;;0.14;100.00
13732;BME280;6937;56.096;12.664;2022-12-18T02:43:40;102205.69;;;0.13;100.00
13732;BME280;6937;56.096;12.664;2022-12-18T02:46:25;102227.53;;;0.21;100.00
13732;BME280;6937;56.096;12.664;2022-12-18T02:48:55;102224.91;;;0.21;100.00
13732;BME280;6937;56.096;12.664;2022-12-18T02:51:36;102233.66;;;0.25;100.00
13732;BME280;6937;56.096;12.664;2022-12-18T02:54:21;102237.16;;;0.25;100.00
13732;BME280;6937;56.096;12.664;2022-12-18T02:56:54;102229.28;;;0.21;100.00
13732;BME280;6937;56.096;12.664;2022-12-18T02:59:31;102252.91;;;0.28;100.00
13732;BME280;6937;56.096;12.664;2022-12-18T03:02:18;102237.16;;;0.24;100.00
13732;BME280;6937;56.096;12.664;2022-12-18T03:04:53;102243.28;;;0.27;100.00
13732;BME280;6937;56.096;12.664;2022-12-18T03:07:32;102235.41;;;0.24;100.00
13732;BME280;6937;56.096;12.664;2022-12-18T03:10:00;102243.28;;;0.26;100.00
13732;BME280;6937;56.096;12.664;2022-12-18T03:12:31;102241.50;;;0.28;100.00
13732;BME280;6937;56.096;12.664;2022-12-18T03:15:06;102224.88;;;0.24;100.00
13732;BME280;6937;56.096;12.664;2022-12-18T03:17:34;102245.00;;;0.33;100.00
13732;BME280;6937;56.096;12.664;2022-12-18T03:20:06;102232.75;;;0.27;100.00
13732;BME280;6937;56.096;12.664;2022-12-18T03:22:37;102250.19;;;0.43;100.00
13732;BME280;6937;56.096;12.664;2022-12-18T03:25:06;102243.16;;;0.42;100.00
13732;BME280;6937;56.096;12.664;2022-12-18T03:27:33;102256.28;;;0.47;100.00
13732;BME280;6937;56.096;12.664;2022-12-18T03:30:06;102229.16;;;0.40;100.00
13732;BME280;6937;56.096;12.664;2022-12-18T03:35:26;102253.59;;;0.53;100.00
13732;BME280;6937;56.096;12.664;2022-12-18T03:37:53;102255.41;;;0.48;100.00
13732;BME280;6937;56.096;12.664;2022-12-18T03:40:21;102278.97;;;0.60;100.00
13732;BME280;6937;56.096;12.664;2022-12-18T03:42:53;102271.09;;;0.62;100.00
13732;BME280;6937;56.096;12.664;2022-12-18T03:45:29;102272.81;;;0.64;100.00
13732;BME280;6937;56.096;12.664;2022-12-18T03:48:01;102278.06;;;0.64;100.00
13732;BME280;6937;56.096;12.664;2022-12-18T03:53:12;102270.19;;;0.66;100.00
13732;BME280;6937;56.096;12.664;2022-12-18T03:55:40;102259.69;;;0.61;100.00
13732;BME280;6937;56.096;12.664;2022-12-18T03:58:07;102232.63;;;0.48;100.00
13732;BME280;6937;56.096;12.664;2022-12-18T04:00:34;102242.25;;;0.46;100.00
13732;BME280;6937;56.096;12.664;2022-12-18T04:03:00;102264.97;;;0.57;100.00
13732;BME280;6937;56.096;12.664;2022-12-18T04:05:27;102266.72;;;0.58;100.00
13732;BME280;6937;56.096;12.664;2022-12-18T04:07:54;102245.75;;;0.45;100.00
13732;BME280;6937;56.096;12.664;2022-12-18T04:10:21;102262.38;;;0.55;100.00
13732;BME280;6937;56.096;12.664;2022-12-18T04:12:47;102268.50;;;0.53;100.00
13732;BME280;6937;56.096;12.664;2022-12-18T04:15:13;102273.78;;;0.51;100.00
13732;BME280;6937;56.096;12.664;2022-12-18T04:17:41;102274.69;;;0.52;100.00
13732;BME280;6937;56.096;12.664;2022-12-18T04:20:08;102280.81;;;0.51;100.00
13732;BME280;6937;56.096;12.664;2022-12-18T04:22:34;102280.81;;;0.52;100.00
13732;BME280;6937;56.096;12.664;2022-12-18T04:25:00;102276.47;;;0.48;100.00
13732;BME280;6937;56.096;12.664;2022-12-18T04:27:25;102288.69;;;0.54;100.00
13732;BME280;6937;56.096;12.664;2022-12-18T04:29:51;102285.16;;;0.55;100.00
13732;BME280;6937;56.096;12.664;2022-12-18T04:32:16;102278.16;;;0.54;100.00
13732;BME280;6937;56.096;12.664;2022-12-18T04:34:41;102278.13;;;0.57;100.00
13732;BME280;6937;56.096;12.664;2022-12-18T04:37:07;102252.78;;;0.48;100.00
13732;BME280;6937;56.096;12.664;2022-12-18T04:39:33;102264.13;;;0.56;100.00
13732;BME280;6937;56.096;12.664;2022-12-18T04:41:59;102252.72;;;0.54;100.00
13732;BME280;6937;56.096;12.664;2022-12-18T04:44:24;102274.59;;;0.61;100.00
13732;BME280;6937;56.096;12.664;2022-12-18T04:46:50;102262.38;;;0.55;100.00
13732;BME280;6937;56.096;12.664;2022-12-18T04:49:15;102281.59;;;0.63;100.00
13732;BME280;6937;56.096;12.664;2022-12-18T04:51:40;102280.72;;;0.61;100.00
13732;BME280;6937;56.096;12.664;2022-12-18T04:54:06;102284.22;;;0.65;100.00
13732;BME280;6937;56.096;12.664;2022-12-18T04:56:31;102282.47;;;0.65;100.00
13732;BME280;6937;56.096;12.664;2022-12-18T04:58:57;102299.97;;;0.71;100.00
13732;BME280;6937;56.096;12.664;2022-12-18T05:01:22;102285.97;;;0.66;100.00
13732;BME280;6937;56.096;12.664;2022-12-18T05:03:48;102283.34;;;0.67;100.00
13732;BME280;6937;56.096;12.664;2022-12-18T05:06:13;102297.25;;;0.80;100.00
13732;BME280;6937;56.096;12.664;2022-12-18T05:08:39;102294.59;;;0.83;100.00
13732;BME280;6937;56.096;12.664;2022-12-18T05:11:07;102299.84;;;0.86;100.00
13732;BME280;6937;56.096;12.664;2022-12-18T05:13:33;102279.72;;;0.79;100.00
13732;BME280;6937;56.096;12.664;2022-12-18T05:15:59;102291.94;;;0.87;100.00
13732;BME280;6937;56.096;12.664;2022-12-18T05:18:25;102293.69;;;0.90;100.00
13732;BME280;6937;56.096;12.664;2022-12-18T05:20:51;102299.81;;;0.89;100.00
13732;BME280;6937;56.096;12.664;2022-12-18T05:23:17;102277.13;;;0.77;100.00
13732;BME280;6937;56.096;12.664;2022-12-18T05:25:42;102294.56;;;0.89;100.00
13732;BME280;6937;56.096;12.664;2022-12-18T05:28:14;102296.31;;;0.87;100.00
13732;BME280;6937;56.096;12.664;2022-12-18T05:30:39;102297.19;;;0.89;100.00
13732;BME280;6937;56.096;12.664;2022-12-18T05:33:07;102293.66;;;0.91;100.00
13732;BME280;6937;56.096;12.664;2022-12-18T05:35:33;102296.28;;;0.91;100.00
13732;BME280;6937;56.096;12.664;2022-12-18T05:37:58;102291.91;;;0.93;100.00
13732;BME280;6937;56.096;12.664;2022-12-18T05:40:24;102300.69;;;0.92;100.00
13732;BME280;6937;56.096;12.664;2022-12-18T05:42:49;102301.56;;;0.91;100.00
13732;BME280;6937;56.096;12.664;2022-12-18T05:45:14;102304.19;;;0.93;100.00
13732;BME280;6937;56.096;12.664;2022-12-18T05:47:40;102310.28;;;0.95;100.00
13732;BME280;6937;56.096;12.664;2022-12-18T05:50:05;102311.16;;;0.95;100.00
13732;BME280;6937;56.096;12.664;2022-12-18T05:52:32;102319.91;;;0.97;100.00
13732;BME280;6937;56.096;12.664;2022-12-18T05:54:57;102309.44;;;0.93;100.00
13732;BME280;6937;56.096;12.664;2022-12-18T05:57:24;102323.47;;;0.95;100.00
13732;BME280;6937;56.096;12.664;2022-12-18T05:59:49;102319.94;;;0.94;100.00
13732;BME280;6937;56.096;12.664;2022-12-18T06:02:14;102312.13;;;0.85;100.00
13732;BME280;6937;56.096;12.664;2022-12-18T06:04:40;102288.47;;;0.79;100.00
13732;BME280;6937;56.096;12.664;2022-12-18T06:07:05;102290.25;;;0.79;100.00
13732;BME280;6937;56.096;12.664;2022-12-18T06:09:30;102297.25;;;0.80;100.00
13732;BME280;6937;56.096;12.664;2022-12-18T06:11:56;102311.22;;;0.86;100.00
13732;BME280;6937;56.096;12.664;2022-12-18T06:14:21;102313.91;;;0.79;100.00
13732;BME280;6937;56.096;12.664;2022-12-18T06:16:46;102321.81;;;0.82;100.00
13732;BME280;6937;56.096;12.664;2022-12-18T06:19:14;102326.22;;;0.81;100.00
13732;BME280;6937;56.096;12.664;2022-12-18T06:21:41;102330.63;;;0.76;100.00
13732;BME280;6937;56.096;12.664;2022-12-18T06:24:06;102340.25;;;0.82;100.00
13732;BME280;6937;56.096;12.664;2022-12-18T06:26:32;102331.50;;;0.75;100.00
13732;BME280;6937;56.096;12.664;2022-12-18T06:28:57;102335.03;;;0.73;100.00
13732;BME280;6937;56.096;12.664;2022-12-18T06:31:22;102344.63;;;0.81;100.00
13732;BME280;6937;56.096;12.664;2022-12-18T06:33:48;102343.75;;;0.82;100.00
13732;BME280;6937;56.096;12.664;2022-12-18T06:36:13;102355.13;;;0.83;100.00
13732;BME280;6937;56.096;12.664;2022-12-18T06:38:41;102362.16;;;0.82;100.00
13732;BME280;6937;56.096;12.664;2022-12-18T06:41:15;102337.69;;;0.70;100.00
13732;BME280;6937;56.096;12.664;2022-12-18T06:43:41;102356.94;;;0.78;100.00
13732;BME280;6937;56.096;12.664;2022-12-18T06:46:06;102354.31;;;0.78;100.00
13732;BME280;6937;56.096;12.664;2022-12-18T06:48:32;102339.44;;;0.68;100.00
13732;BME280;6937;56.096;12.664;2022-12-18T06:50:58;102374.44;;;0.82;100.00
13732;BME280;6937;56.096;12.664;2022-12-18T06:53:23;102363.06;;;0.77;100.00
13732;BME280;6937;56.096;12.664;2022-12-18T06:55:49;102357.84;;;0.68;100.00
13732;BME280;6937;56.096;12.664;2022-12-18T06:58:14;102368.34;;;0.72;100.00
13732;BME280;6937;56.096;12.664;2022-12-18T07:00:40;102384.16;;;0.74;100.00
13732;BME280;6937;56.096;12.664;2022-12-18T07:03:06;102376.28;;;0.68;100.00
13732;BME280;6937;56.096;12.664;2022-12-18T07:05:31;102394.66;;;0.78;100.00
13732;BME280;6937;56.096;12.664;2022-12-18T07:07:57;102396.41;;;0.78;100.00
13732;BME280;6937;56.096;12.664;2022-12-18T07:10:23;102394.63;;;0.81;100.00
13732;BME280;6937;56.096;12.664;2022-12-18T07:12:49;102379.75;;;0.71;100.00
13732;BME280;6937;56.096;12.664;2022-12-18T07:15:14;102405.13;;;0.84;100.00
13732;BME280;6937;56.096;12.664;2022-12-18T07:17:39;102409.53;;;0.85;100.00
13732;BME280;6937;56.096;12.664;2022-12-18T07:20:05;102411.25;;;0.86;100.00
13732;BME280;6937;56.096;12.664;2022-12-18T07:22:31;102402.47;;;0.87;100.00
13732;BME280;6937;56.096;12.664;2022-12-18T07:24:56;102411.25;;;0.88;100.00
13732;BME280;6937;56.096;12.664;2022-12-18T07:27:22;102399.00;;;0.85;100.00
13732;BME280;6937;56.096;12.664;2022-12-18T07:29:48;102404.22;;;0.87;100.00
13732;BME280;6937;56.096;12.664;2022-12-18T07:32:13;102405.97;;;0.86;100.00
13732;BME280;6937;56.096;12.664;2022-12-18T07:34:39;102406.88;;;0.90;100.00
13732;BME280;6937;56.096;12.664;2022-12-18T07:37:04;102418.25;;;0.92;100.00
13732;BME280;6937;56.096;12.664;2022-12-18T07:39:30;102419.09;;;0.94;100.00
13732;BME280;6937;56.096;12.664;2022-12-18T07:41:55;102406.84;;;0.87;100.00
13732;BME280;6937;56.096;12.664;2022-12-18T07:44:39;102422.59;;;0.96;100.00
13732;BME280;6937;56.096;12.664;2022-12-18T07:47:05;102428.72;;;1.00;100.00
13732;BME280;6937;56.096;12.664;2022-12-18T07:49:30;102435.72;;;1.04;100.00
13732;BME280;6937;56.096;12.664;2022-12-18T07:51:56;102433.09;;;1.04;100.00
13732;BME280;6937;56.096;12.664;2022-12-18T07:54:23;102431.34;;;1.01;100.00
13732;BME280;6937;56.096;12.664;2022-12-18T07:56:49;102415.59;;;0.95;100.00
13732;BME280;6937;56.096;12.664;2022-12-18T07:59:15;102437.47;;;1.05;100.00
13732;BME280;6937;56.096;12.664;2022-12-18T08:01:40;102445.34;;;1.08;100.00
13732;BME280;6937;56.096;12.664;2022-12-18T08:04:06;102451.47;;;1.10;100.00
13732;BME280;6937;56.096;12.664;2022-12-18T08:06:31;102440.06;;;1.09;100.00
13732;BME280;6937;56.096;12.664;2022-12-18T08:08:57;102447.94;;;1.14;100.00
13732;BME280;6937;56.096;12.664;2022-12-18T08:11:24;102440.91;;;1.13;100.00
13732;BME280;6937;56.096;12.664;2022-12-18T08:13:49;102438.28;;;1.13;100.00
13732;BME280;6937;56.096;12.664;2022-12-18T08:16:15;102432.19;;;1.08;100.00
13732;BME280;6937;56.096;12.664;2022-12-18T08:18:41;102419.03;;;1.03;100.00
13732;BME280;6937;56.096;12.664;2022-12-18T08:21:11;102413.81;;;1.00;100.00
13732;BME280;6937;56.096;12.664;2022-12-18T08:23:37;102426.91;;;1.06;100.00
13732;BME280;6937;56.096;12.664;2022-12-18T08:26:03;102431.31;;;1.07;100.00
13732;BME280;6937;56.096;12.664;2022-12-18T08:28:28;102423.47;;;1.00;100.00
13732;BME280;6937;56.096;12.664;2022-12-18T08:30:54;102425.13;;;1.11;100.00
13732;BME280;6937;56.096;12.664;2022-12-18T08:33:19;102421.69;;;1.00;100.00
13732;BME280;6937;56.096;12.664;2022-12-18T08:35:44;102447.97;;;1.12;100.00
13732;BME280;6937;56.096;12.664;2022-12-18T08:38:10;102421.69;;;1.03;100.00
13732;BME280;6937;56.096;12.664;2022-12-18T08:40:35;102431.25;;;1.15;100.00
13732;BME280;6937;56.096;12.664;2022-12-18T08:43:01;102420.81;;;1.04;100.00
13732;BME280;6937;56.096;12.664;2022-12-18T08:45:45;102419.94;;;1.04;100.00
13732;BME280;6937;56.096;12.664;2022-12-18T08:48:10;102431.25;;;1.13;100.00
13732;BME280;6937;56.096;12.664;2022-12-18T08:50:35;102450.56;;;1.14;100.00
13732;BME280;6937;56.096;12.664;2022-12-18T08:53:01;102451.44;;;1.16;100.00
13732;BME280;6937;56.096;12.664;2022-12-18T08:55:26;102454.94;;;1.18;100.00
13732;BME280;6937;56.096;12.664;2022-12-18T08:57:51;102425.97;;;1.13;100.00
13732;BME280;6937;56.096;12.664;2022-12-18T09:00:17;102436.53;;;1.16;100.00
13732;BME280;6937;56.096;12.664;2022-12-18T09:02:42;102454.88;;;1.27;100.00
13732;BME280;6937;56.096;12.664;2022-12-18T09:05:08;102418.94;;;1.18;100.00
13732;BME280;6937;56.096;12.664;2022-12-18T09:07:33;102449.59;;;1.30;100.00
13732;BME280;6937;56.096;12.664;2022-12-18T09:09:59;102453.97;;;1.31;100.00
13732;BME280;6937;56.096;12.664;2022-12-18T09:12:24;102467.09;;;1.37;100.00
13732;BME280;6937;56.096;12.664;2022-12-18T09:14:50;102464.47;;;1.38;100.00
13732;BME280;6937;56.096;12.664;2022-12-18T09:17:15;102460.97;;;1.32;100.00
13732;BME280;6937;56.096;12.664;2022-12-18T09:19:40;102485.47;;;1.43;100.00
13732;BME280;6937;56.096;12.664;2022-12-18T09:22:06;102483.75;;;1.42;100.00
13732;BME280;6937;56.096;12.664;2022-12-18T09:24:31;102468.81;;;1.39;100.00
13732;BME280;6937;56.096;12.664;2022-12-18T09:26:56;102474.09;;;1.41;100.00
13732;BME280;6937;56.096;12.664;2022-12-18T09:29:22;102446.94;;;1.30;100.00
13732;BME280;6937;56.096;12.664;2022-12-18T09:31:47;102457.44;;;1.36;100.00
13732;BME280;6937;56.096;12.664;2022-12-18T09:34:14;102464.44;;;1.40;100.00
13732;BME280;6937;56.096;12.664;2022-12-18T09:36:39;102466.22;;;1.38;100.00
13732;BME280;6937;56.096;12.664;2022-12-18T09:39:05;102472.34;;;1.37;100.00
13732;BME280;6937;56.096;12.664;2022-12-18T09:41:37;102463.59;;;1.32;100.00
13732;BME280;6937;56.096;12.664;2022-12-18T09:49:50;102476.78;;;1.35;100.00
13732;BME280;6937;56.096;12.664;2022-12-18T09:55:05;102465.34;;;1.31;100.00
13732;BME280;6937;56.096;12.664;2022-12-18T09:57:35;102461.88;;;1.29;100.00
13732;BME280;6937;56.096;12.664;2022-12-18T10:00:14;102483.75;;;1.42;100.00
13732;BME280;6937;56.096;12.664;2022-12-18T10:02:40;102476.75;;;1.36;100.00
13732;BME280;6937;56.096;12.664;2022-12-18T10:08:19;102518.78;;;1.53;100.00
13732;BME280;6937;56.096;12.664;2022-12-18T10:10:50;102527.53;;;1.58;100.00
13732;BME280;6937;56.096;12.664;2022-12-18T10:13:29;102499.44;;;1.54;100.00
13732;BME280;6937;56.096;12.664;2022-12-18T10:16:09;102513.38;;;1.71;100.00
13732;BME280;6937;56.096;12.664;2022-12-18T10:22:19;102495.75;;;1.78;100.00
13732;BME280;6937;56.096;12.664;2022-12-18T10:26:51;102487.00;;;1.73;100.00
13732;BME280;6937;56.096;12.664;2022-12-18T10:29:18;102508.00;;;1.80;100.00
13732;BME280;6937;56.096;12.664;2022-12-18T10:31:44;102528.19;;;1.84;100.00
13732;BME280;6937;56.096;12.664;2022-12-18T10:34:11;102541.38;;;1.86;100.00
13732;BME280;6937;56.096;12.664;2022-12-18T10:36:40;102532.59;;;1.84;100.00
13732;BME280;6937;56.096;12.664;2022-12-18T10:39:22;102539.63;;;1.86;100.00
13732;BME280;6937;56.096;12.664;2022-12-18T10:41:48;102547.50;;;1.91;100.00
13732;BME280;6937;56.096;12.664;2022-12-18T10:44:22;102515.91;;;1.82;100.00
13732;BME280;6937;56.096;12.664;2022-12-18T10:46:54;102527.25;;;1.91;100.00
13732;BME280;6937;56.096;12.664;2022-12-18T10:49:26;102527.28;;;1.88;100.00
13732;BME280;6937;56.096;12.664;2022-12-18T10:52:07;102507.16;;;1.80;100.00
13732;BME280;6937;56.096;12.664;2022-12-18T10:54:37;102535.16;;;1.93;100.00
13732;BME280;6937;56.096;12.664;2022-12-18T10:57:17;102544.75;;;2.02;100.00
13732;BME280;6937;56.096;12.664;2022-12-18T10:59:54;102529.84;;;1.96;100.00
13732;BME280;6937;56.096;12.664;2022-12-18T11:02:33;102528.16;;;1.90;100.00
13732;BME280;6937;56.096;12.664;2022-12-18T11:04:59;102522.03;;;1.87;100.00
13732;BME280;6937;56.096;12.664;2022-12-18T11:07:25;102533.47;;;1.87;100.00
13732;BME280;6937;56.096;12.664;2022-12-18T11:10:02;102546.56;;;1.95;100.00
13732;BME280;6937;56.096;12.664;2022-12-18T11:12:28;102527.25;;;1.91;100.00
13732;BME280;6937;56.096;12.664;2022-12-18T11:14:55;102516.78;;;1.84;100.00
13732;BME280;6937;56.096;12.664;2022-12-18T11:17:33;102519.34;;;1.91;100.00
13732;BME280;6937;56.096;12.664;2022-12-18T11:20:19;102489.56;;;1.80;100.00
13732;BME280;6937;56.096;12.664;2022-12-18T11:23:01;102514.09;;;1.90;100.00
13732;BME280;6937;56.096;12.664;2022-12-18T11:25:28;102506.25;;;1.81;100.00
13732;BME280;6937;56.096;12.664;2022-12-18T11:27:59;102509.78;;;1.83;100.00
13732;BME280;6937;56.096;12.664;2022-12-18T11:30:31;102509.81;;;1.78;100.00
13732;BME280;6937;56.096;12.664;2022-12-18T11:33:10;102521.22;;;1.79;100.00
13732;BME280;6937;56.096;12.664;2022-12-18T11:35:39;102523.91;;;1.76;100.00
13732;BME280;6937;56.096;12.664;2022-12-18T11:38:28;102510.75;;;1.71;100.00
13732;BME280;6937;56.096;12.664;2022-12-18T11:40:59;102520.38;;;1.74;100.00
13732;BME280;6937;56.096;12.664;2022-12-18T11:43:35;102502.84;;;1.70;100.00
13732;BME280;6937;56.096;12.664;2022-12-18T11:46:10;102509.00;;;1.67;100.00
13732;BME280;6937;56.096;12.664;2022-12-18T11:48:46;102502.00;;;1.68;100.00
13732;BME280;6937;56.096;12.664;2022-12-18T11:51:28;102500.22;;;1.68;100.00
13732;BME280;6937;56.096;12.664;2022-12-18T11:53:55;102525.66;;;1.74;100.00
13732;BME280;6937;56.096;12.664;2022-12-18T11:56:35;102518.66;;;1.71;100.00
13732;BME280;6937;56.096;12.664;2022-12-18T12:02:24;102530.91;;;1.74;100.00
13732;BME280;6937;56.096;12.664;2022-12-18T12:10:52;102536.94;;;1.88;100.00
13732;BME280;6937;56.096;12.664;2022-12-18T12:16:57;102550.97;;;1.91;100.00
13732;BME280;6937;56.096;12.664;2022-12-18T12:20:21;102533.38;;;1.98;100.00
13732;BME280;6937;56.096;12.664;2022-12-18T12:22:57;102586.72;;;2.26;100.00
13732;BME280;6937;56.096;12.664;2022-12-18T12:25:46;102583.47;;;2.86;100.00
13732;BME280;6937;56.096;12.664;2022-12-18T12:34:20;102572.75;;;4.19;100.00
13732;BME280;6937;56.096;12.664;2022-12-18T12:37:00;102566.59;;;4.19;100.00
13732;BME280;6937;56.096;12.664;2022-12-18T12:39:35;102530.47;;;3.63;100.00
13732;BME280;6937;56.096;12.664;2022-12-18T12:42:04;102531.50;;;2.90;100.00
13732;BME280;6937;56.096;12.664;2022-12-18T12:44:55;102564.41;;;2.62;100.00
13732;BME280;6937;56.096;12.664;2022-12-18T12:47:28;102583.88;;;2.50;100.00
13732;BME280;6937;56.096;12.664;2022-12-18T12:49:56;102588.28;;;2.48;100.00
13732;BME280;6937;56.096;12.664;2022-12-18T12:52:37;102599.63;;;2.58;100.00
13732;BME280;6937;56.096;12.664;2022-12-18T12:55:05;102600.44;;;2.66;100.00
13732;BME280;6937;56.096;12.664;2022-12-18T12:57:38;102590.28;;;2.23;100.00
13732;BME280;6937;56.096;12.664;2022-12-18T13:00:12;102579.16;;;1.85;100.00
13732;BME280;6937;56.096;12.664;2022-12-18T13:05:25;102624.16;;;1.59;100.00
13732;BME280;6937;56.096;12.664;2022-12-18T13:08:10;102629.47;;;1.47;100.00
13732;BME280;6937;56.096;12.664;2022-12-18T13:10:38;102626.88;;;1.36;100.00
13732;BME280;6937;56.096;12.664;2022-12-18T13:13:11;102608.53;;;1.18;100.00
13732;BME280;6937;56.096;12.664;2022-12-18T13:15:48;102624.34;;;1.23;100.00
13732;BME280;6937;56.096;12.664;2022-12-18T13:18:17;102619.97;;;1.14;100.00
13732;BME280;6937;56.096;12.664;2022-12-18T13:36:47;102599.78;;;1.13;100.00
13732;BME280;6937;56.096;12.664;2022-12-18T13:41:48;102591.00;;;1.16;100.00
13732;BME280;6937;56.096;12.664;2022-12-18T13:44:35;102550.66;;;1.06;100.00
13732;BME280;6937;56.096;12.664;2022-12-18T13:47:04;102539.34;;;0.89;100.00
13732;BME280;6937;56.096;12.664;2022-12-18T13:49:41;102568.25;;;0.95;100.00
13732;BME280;6937;56.096;12.664;2022-12-18T13:52:22;102563.03;;;0.89;100.00
13732;BME280;6937;56.096;12.664;2022-12-18T13:54:52;102576.22;;;0.86;100.00
13732;BME280;6937;56.096;12.664;2022-12-18T13:57:36;102588.47;;;0.84;100.00
13732;BME280;6937;56.096;12.664;2022-12-18T14:02:47;102570.09;;;0.73;100.00
13732;BME280;6937;56.096;12.664;2022-12-18T14:07:47;102574.50;;;0.67;100.00
13732;BME280;6937;56.096;12.664;2022-12-18T14:10:15;102564.00;;;0.62;100.00
13732;BME280;6937;56.096;12.664;2022-12-18T14:12:45;102564.88;;;0.60;100.00
13732;BME280;6937;56.096;12.664;2022-12-18T14:15:29;102572.75;;;0.57;100.00
13732;BME280;6937;56.096;12.664;2022-12-18T14:20:42;102567.53;;;0.51;100.00